Portada
METAR-TAF:

METAR-TAF

Aeroports :

Najaf, Iraq

latitud: 31-59-23N, longitud: 44-24-15E, altitud: 31 m

Observació

L'informe es va fer fa 46 minuts, a les 02:00 UTC
Vent 5 kt del Oest/Sud-Oest
Temperatura 31°C
Humitat 24%
Pressió 1004 hPa
Visibilitat: 8000 m

METAR: ORNI 210200Z 25005KT 8000 NSC 31/08 Q1004 NOSIG

Hora: 05:46 (02:46 UTC)

Pronòstic

L'informe es va fer fa 4 hores i 46 minuts, a les 22:00 UTC
Pronòstic vàlid del 21 a les 00 UTC al 21 a les 24 UTC
Vent 8 kt del Oest/Nord-Oest
Visibilitat 10 km o més
sense núvols per sota de 1500 mi sense presència de cumulonimbus.

TAF: ORNI 202200Z 2100/2124 30008KT CAVOK

Observacions i pronòstics meteorològics de més de 4000 aeroports (METAR i TAF).

Les estacions disponibles són els punts grocs i vermells al mapa.

Posi el ratolí al punt desitjat per veure el nom de l'estació.

Feu clic per veure les observacions i els pronòstics meteorològics.

Per canviar el mapa: feu clic els botons verds amb una creu de color negre per apropar; al botó verd amb un guió per allunyar la imatge; o en les fletxes verdes per a mapes adjacents.


METAR-TAF: